createdAt,value
2018-11-23T00:00:00.240Z,20.55
2018-11-23T00:00:31.434Z,21.90
2018-11-23T00:01:02.587Z,21.80
2018-11-23T00:01:33.692Z,21.50
2018-11-23T00:02:04.793Z,21.40
2018-11-23T00:02:35.889Z,22.13
2018-11-23T00:03:07.018Z,22.55
2018-11-23T00:03:41.182Z,22.00
2018-11-23T00:04:12.322Z,22.15
2018-11-23T00:04:43.438Z,22.65
2018-11-23T00:05:14.547Z,23.40
2018-11-23T00:05:45.687Z,23.02
2018-11-23T00:06:16.823Z,22.62
2018-11-23T00:06:47.923Z,22.67
2018-11-23T00:07:19.755Z,22.30
2018-11-23T00:07:51.500Z,22.30
2018-11-23T00:08:22.603Z,22.35
2018-11-23T00:08:54.352Z,23.35
2018-11-23T00:09:26.039Z,21.85
2018-11-23T00:09:57.151Z,22.02
2018-11-23T00:10:29.049Z,22.65
2018-11-23T00:11:00.172Z,22.13
2018-11-23T00:11:31.451Z,23.42
2018-11-23T00:12:02.598Z,22.40
2018-11-23T00:12:33.721Z,22.65
2018-11-23T00:13:04.865Z,23.12
2018-11-23T00:13:35.983Z,21.87
2018-11-23T00:14:07.186Z,22.58
2018-11-23T00:14:38.310Z,22.42
2018-11-23T00:15:09.443Z,24.32
2018-11-23T00:15:40.603Z,22.85
2018-11-23T00:16:11.723Z,23.22
2018-11-23T00:16:42.861Z,21.60
2018-11-23T00:17:13.961Z,22.90
2018-11-23T00:17:45.774Z,23.83
2018-11-23T00:18:17.462Z,23.85
2018-11-23T00:18:48.562Z,22.15
2018-11-23T00:19:19.661Z,23.57
2018-11-23T00:19:50.766Z,23.38
2018-11-23T00:20:22.787Z,22.15
2018-11-23T00:20:53.894Z,21.55
2018-11-23T00:21:24.998Z,22.20
2018-11-23T00:21:56.148Z,22.90
2018-11-23T00:22:27.272Z,23.92
2018-11-23T00:22:58.382Z,23.20
2018-11-23T00:23:29.514Z,22.27
2018-11-23T00:24:00.621Z,22.52
2018-11-23T00:24:31.721Z,23.22
2018-11-23T00:25:02.847Z,22.02
2018-11-23T00:25:33.948Z,21.52
2018-11-23T00:26:05.061Z,21.00
2018-11-23T00:26:36.199Z,21.93
2018-11-23T00:27:07.362Z,20.57
2018-11-23T00:27:38.475Z,20.12
2018-11-23T00:28:09.588Z,21.52
2018-11-23T00:28:40.683Z,21.68
2018-11-23T00:29:11.788Z,20.88
2018-11-23T00:29:43.531Z,21.85
2018-11-23T00:30:14.663Z,20.25
2018-11-23T00:30:45.768Z,21.82
2018-11-23T00:31:17.511Z,20.30
2018-11-23T00:31:48.647Z,21.15
2018-11-23T00:32:19.770Z,20.55
2018-11-23T00:32:50.883Z,21.07
2018-11-23T00:33:21.982Z,21.40
2018-11-23T00:33:53.923Z,20.85
2018-11-23T00:34:25.339Z,21.55
2018-11-23T00:34:56.477Z,20.25
2018-11-23T00:35:27.572Z,20.82
2018-11-23T00:35:58.680Z,20.35
2018-11-23T00:36:29.774Z,20.65
2018-11-23T00:37:00.910Z,19.87
2018-11-23T00:37:32.277Z,20.05
2018-11-23T00:38:03.411Z,20.80
2018-11-23T00:38:34.507Z,20.37
2018-11-23T00:39:06.311Z,21.10
2018-11-23T00:39:37.407Z,19.67
2018-11-23T00:40:08.529Z,19.70
2018-11-23T00:40:39.641Z,19.77
2018-11-23T00:41:10.796Z,19.55
2018-11-23T00:41:41.930Z,19.60
2018-11-23T00:42:13.106Z,20.50
2018-11-23T00:42:45.267Z,19.75
2018-11-23T00:43:16.402Z,19.85
2018-11-23T00:43:47.613Z,19.70
2018-11-23T00:44:18.715Z,19.23
2018-11-23T00:44:49.811Z,19.23
2018-11-23T00:45:20.977Z,19.77
2018-11-23T00:45:52.123Z,19.30
2018-11-23T00:46:23.299Z,20.70
2018-11-23T00:46:54.545Z,20.30
2018-11-23T00:47:25.675Z,19.40
2018-11-23T00:47:56.803Z,19.17
2018-11-23T00:48:27.915Z,18.98
2018-11-23T00:48:59.030Z,19.02
2018-11-23T00:49:30.195Z,19.65
2018-11-23T00:50:01.895Z,18.30
2018-11-23T00:50:34.061Z,19.10
2018-11-23T00:51:06.071Z,19.20
2018-11-23T00:51:37.358Z,19.85
2018-11-23T00:52:08.471Z,20.02
2018-11-23T00:52:39.567Z,19.17
2018-11-23T00:53:10.694Z,19.30
2018-11-23T00:53:41.802Z,18.87
2018-11-23T00:54:13.453Z,19.67
2018-11-23T00:54:44.590Z,19.15
2018-11-23T00:55:15.691Z,19.82
2018-11-23T00:55:46.796Z,18.35
2018-11-23T00:56:17.900Z,19.50
2018-11-23T00:56:49.103Z,19.10
2018-11-23T00:57:20.198Z,19.57
2018-11-23T00:57:52.205Z,19.00
2018-11-23T00:58:23.314Z,19.57
2018-11-23T00:58:54.428Z,19.98
2018-11-23T00:59:25.531Z,19.57
2018-11-23T00:59:56.657Z,18.80
2018-11-23T01:00:27.783Z,20.52
2018-11-23T01:00:58.920Z,20.60
2018-11-23T01:01:31.090Z,20.92
2018-11-23T01:02:02.261Z,19.42
2018-11-23T01:02:33.377Z,19.73
2018-11-23T01:03:04.527Z,19.85
2018-11-23T01:03:35.625Z,20.12
2018-11-23T01:04:06.724Z,19.37
2018-11-23T01:04:37.822Z,19.55
2018-11-23T01:05:09.598Z,19.57
2018-11-23T01:05:40.791Z,18.17
2018-11-23T01:06:11.890Z,19.07
2018-11-23T01:06:43.043Z,18.85
2018-11-23T01:07:14.185Z,19.17
2018-11-23T01:07:45.288Z,19.12
2018-11-23T01:08:16.432Z,18.87
2018-11-23T01:08:47.542Z,19.37
2018-11-23T01:09:18.702Z,19.48
2018-11-23T01:09:50.981Z,19.77
2018-11-23T01:10:22.084Z,18.27
2018-11-23T01:10:53.248Z,19.85
2018-11-23T01:11:24.376Z,18.82
2018-11-23T01:11:55.630Z,19.50
2018-11-23T01:12:27.813Z,18.98
2018-11-23T01:12:58.989Z,18.98
2018-11-23T01:13:30.118Z,19.02
2018-11-23T01:14:01.235Z,17.82
2018-11-23T01:14:32.359Z,18.50
2018-11-23T01:15:03.464Z,18.57
2018-11-23T01:15:35.254Z,18.65
2018-11-23T01:16:06.350Z,18.70
2018-11-23T01:16:37.442Z,19.27
2018-11-23T01:17:08.587Z,19.62
2018-11-23T01:17:39.680Z,18.77
2018-11-23T01:18:10.775Z,19.27
2018-11-23T01:18:41.870Z,19.55
2018-11-23T01:19:12.958Z,19.95
2018-11-23T01:19:44.054Z,18.70
2018-11-23T01:20:15.168Z,20.15
2018-11-23T01:20:46.272Z,18.73
2018-11-23T01:21:17.372Z,19.02
2018-11-23T01:21:48.460Z,19.02
2018-11-23T01:22:19.601Z,18.35
2018-11-23T01:22:50.702Z,19.23
2018-11-23T01:23:21.815Z,18.23
2018-11-23T01:23:52.921Z,18.45
2018-11-23T01:24:24.089Z,19.40
2018-11-23T01:24:55.226Z,19.15
2018-11-23T01:25:26.322Z,17.37
2018-11-23T01:25:57.435Z,18.37
2018-11-23T01:26:28.539Z,18.80
2018-11-23T01:26:59.636Z,18.62
2018-11-23T01:27:30.733Z,18.67
2018-11-23T01:28:01.833Z,18.52
2018-11-23T01:28:32.972Z,18.50
2018-11-23T01:29:04.076Z,19.65
2018-11-23T01:29:35.180Z,19.12
2018-11-23T01:30:06.291Z,18.62
2018-11-23T01:30:37.389Z,18.77
2018-11-23T01:31:08.536Z,17.70
2018-11-23T01:31:39.649Z,18.32
2018-11-23T01:32:10.745Z,18.50
2018-11-23T01:32:41.850Z,18.15
2018-11-23T01:33:12.959Z,17.35
2018-11-23T01:33:44.060Z,17.48
2018-11-23T01:34:15.164Z,17.48
2018-11-23T01:34:46.292Z,18.42
2018-11-23T01:35:17.388Z,17.30
2018-11-23T01:35:48.501Z,18.02
2018-11-23T01:36:19.595Z,18.70
2018-11-23T01:36:50.697Z,18.70
2018-11-23T01:37:21.793Z,18.07
2018-11-23T01:37:52.883Z,17.90
2018-11-23T01:38:23.976Z,17.98
2018-11-23T01:38:55.067Z,18.50
2018-11-23T01:39:26.167Z,18.70
2018-11-23T01:39:57.303Z,18.00
2018-11-23T01:40:28.416Z,19.10
2018-11-23T01:40:59.560Z,18.27
2018-11-23T01:41:30.699Z,17.65
2018-11-23T01:42:01.847Z,18.00
2018-11-23T01:42:32.954Z,18.07
2018-11-23T01:43:04.054Z,18.27
2018-11-23T01:43:35.149Z,17.62
2018-11-23T01:44:06.256Z,17.57
2018-11-23T01:44:37.359Z,17.57
2018-11-23T01:45:08.467Z,18.35
2018-11-23T01:45:39.573Z,16.50
2018-11-23T01:46:10.677Z,18.60
2018-11-23T01:46:41.781Z,17.57
2018-11-23T01:47:12.910Z,17.02
2018-11-23T01:47:44.096Z,18.15
2018-11-23T01:48:15.279Z,17.70
2018-11-23T01:48:46.390Z,17.75
2018-11-23T01:49:17.524Z,16.80
2018-11-23T01:49:48.652Z,17.82
2018-11-23T01:50:19.852Z,17.55
2018-11-23T01:50:50.957Z,17.45
2018-11-23T01:51:22.070Z,17.57
2018-11-23T01:51:53.205Z,18.23
2018-11-23T01:52:24.336Z,17.95
2018-11-23T01:52:55.431Z,18.57
2018-11-23T01:53:26.529Z,18.20
2018-11-23T01:53:58.543Z,17.90
2018-11-23T01:54:29.643Z,18.98
2018-11-23T01:55:00.748Z,18.62
2018-11-23T01:55:32.029Z,18.87
2018-11-23T01:56:03.142Z,18.90
2018-11-23T01:56:34.239Z,17.92
2018-11-23T01:57:05.345Z,18.45
2018-11-23T01:57:36.453Z,18.30
2018-11-23T01:58:08.268Z,18.12
2018-11-23T01:58:39.363Z,18.27
2018-11-23T01:59:10.460Z,18.98
2018-11-23T01:59:41.642Z,18.40
2018-11-23T02:00:12.751Z,18.98
2018-11-23T02:00:43.886Z,18.87
2018-11-23T02:01:14.992Z,18.20
2018-11-23T02:01:46.101Z,18.57
2018-11-23T02:02:17.205Z,18.87
2018-11-23T02:02:48.332Z,18.48
2018-11-23T02:03:19.434Z,19.30
2018-11-23T02:03:50.580Z,19.00
2018-11-23T02:04:21.727Z,18.65
2018-11-23T02:04:52.832Z,18.55
2018-11-23T02:05:23.972Z,19.37
2018-11-23T02:05:55.071Z,19.37
2018-11-23T02:06:26.726Z,18.30
2018-11-23T02:06:57.858Z,19.30
2018-11-23T02:07:28.962Z,19.15
2018-11-23T02:08:00.063Z,19.05
2018-11-23T02:08:31.155Z,19.12
2018-11-23T02:09:02.300Z,18.90
2018-11-23T02:09:33.413Z,19.60
2018-11-23T02:10:04.541Z,18.20
2018-11-23T02:10:35.748Z,18.98
2018-11-23T02:11:06.847Z,19.12
2018-11-23T02:11:38.071Z,18.95
2018-11-23T02:12:09.099Z,19.50
2018-11-23T02:12:40.201Z,18.85
2018-11-23T02:13:11.303Z,18.17
2018-11-23T02:13:42.421Z,17.50
2018-11-23T02:14:13.576Z,18.15
2018-11-23T02:14:44.709Z,18.65
2018-11-23T02:15:15.815Z,18.35
2018-11-23T02:15:46.912Z,19.32
2018-11-23T02:16:18.004Z,19.52
2018-11-23T02:16:49.106Z,18.23
2018-11-23T02:17:20.329Z,18.87
2018-11-23T02:17:51.432Z,18.95
2018-11-23T02:18:22.527Z,18.20
2018-11-23T02:18:57.241Z,18.65
2018-11-23T02:19:28.376Z,17.57
2018-11-23T02:19:59.481Z,17.23
2018-11-23T02:20:30.580Z,18.27
2018-11-23T02:21:01.688Z,18.85
2018-11-23T02:21:32.927Z,17.52
2018-11-23T02:22:04.034Z,19.25
2018-11-23T02:22:35.126Z,18.87
2018-11-23T02:23:06.240Z,18.20
2018-11-23T02:23:38.123Z,18.57
2018-11-23T02:24:09.226Z,18.45
2018-11-23T02:24:40.371Z,19.05
2018-11-23T02:25:11.517Z,19.23
2018-11-23T02:25:42.624Z,18.12
2018-11-23T02:26:13.736Z,19.40
2018-11-23T02:26:44.868Z,18.12
2018-11-23T02:27:15.973Z,19.12
2018-11-23T02:27:48.043Z,18.52
2018-11-23T02:28:19.143Z,19.05
2018-11-23T02:28:50.257Z,20.15
2018-11-23T02:29:21.363Z,19.15
2018-11-23T02:29:52.468Z,19.40
2018-11-23T02:30:23.602Z,19.77
2018-11-23T02:30:54.707Z,19.55
2018-11-23T02:31:25.808Z,19.62
2018-11-23T02:31:56.924Z,19.48
2018-11-23T02:32:28.052Z,18.50
2018-11-23T02:32:59.167Z,19.17
2018-11-23T02:33:30.286Z,20.30
2018-11-23T02:34:01.398Z,20.12
2018-11-23T02:34:32.510Z,19.67
2018-11-23T02:35:03.613Z,19.17
2018-11-23T02:35:34.767Z,19.40
2018-11-23T02:36:05.870Z,19.87
2018-11-23T02:36:36.987Z,19.48
2018-11-23T02:37:08.088Z,20.23
2018-11-23T02:37:39.195Z,19.10
2018-11-23T02:38:10.293Z,19.75
2018-11-23T02:38:41.396Z,19.62
2018-11-23T02:39:12.515Z,20.08
2018-11-23T02:39:43.622Z,19.27
2018-11-23T02:40:14.732Z,19.67
2018-11-23T02:40:45.876Z,21.17
2018-11-23T02:41:17.785Z,20.68
2018-11-23T02:41:48.902Z,19.48
2018-11-23T02:42:20.011Z,20.52
2018-11-23T02:42:51.123Z,19.05
2018-11-23T02:43:22.235Z,19.60
2018-11-23T02:43:53.336Z,19.73
2018-11-23T02:44:24.441Z,20.65
2018-11-23T02:44:55.548Z,20.00
2018-11-23T02:45:27.721Z,19.37
2018-11-23T02:45:58.860Z,18.80
2018-11-23T02:46:29.959Z,19.60
2018-11-23T02:47:01.064Z,20.15
2018-11-23T02:47:32.165Z,18.98
2018-11-23T02:48:03.279Z,19.67
2018-11-23T02:48:34.382Z,19.82
2018-11-23T02:49:05.495Z,19.50
2018-11-23T02:49:36.639Z,18.67
2018-11-23T02:50:07.747Z,20.32
2018-11-23T02:50:38.844Z,19.95
2018-11-23T02:51:10.742Z,19.40
2018-11-23T02:51:41.831Z,20.05
2018-11-23T02:52:12.937Z,19.37
2018-11-23T02:52:44.037Z,20.62
2018-11-23T02:53:15.153Z,20.15
2018-11-23T02:53:46.272Z,19.90
2018-11-23T02:54:17.362Z,19.87
2018-11-23T02:54:48.462Z,19.85
2018-11-23T02:55:21.117Z,21.55
2018-11-23T02:55:52.217Z,20.00
2018-11-23T02:56:23.355Z,20.90
2018-11-23T02:56:54.577Z,20.50
2018-11-23T02:57:25.677Z,20.57
2018-11-23T02:57:56.775Z,19.57
2018-11-23T02:58:27.922Z,18.70
2018-11-23T02:58:59.026Z,20.65
2018-11-23T02:59:30.130Z,20.15
2018-11-23T03:00:01.233Z,20.05
2018-11-23T03:00:32.331Z,19.77
2018-11-23T03:01:03.513Z,19.77
2018-11-23T03:01:34.620Z,20.35
2018-11-23T03:02:05.725Z,20.30
2018-11-23T03:02:36.823Z,19.45
2018-11-23T03:03:07.926Z,17.60
2018-11-23T03:03:39.064Z,17.40
2018-11-23T03:04:10.167Z,17.57
2018-11-23T03:04:41.272Z,16.85
2018-11-23T03:05:12.423Z,17.70
2018-11-23T03:05:43.519Z,17.65
2018-11-23T03:06:14.618Z,16.60
2018-11-23T03:06:45.719Z,16.20
2018-11-23T03:07:16.824Z,18.30
2018-11-23T03:07:47.982Z,16.75
2018-11-23T03:08:19.079Z,16.40
2018-11-23T03:08:50.173Z,16.77
2018-11-23T03:09:21.296Z,17.60
2018-11-23T03:09:52.402Z,18.70
2018-11-23T03:10:23.549Z,18.05
2018-11-23T03:10:54.693Z,18.80
2018-11-23T03:11:25.783Z,16.93
2018-11-23T03:11:56.948Z,17.50
2018-11-23T03:12:28.087Z,17.12
2018-11-23T03:12:59.226Z,16.48
2018-11-23T03:13:30.362Z,16.07
2018-11-23T03:14:01.502Z,16.07
2018-11-23T03:14:32.692Z,16.17
2018-11-23T03:15:03.840Z,15.03
2018-11-23T03:15:34.931Z,16.10
2018-11-23T03:16:06.139Z,16.73
2018-11-23T03:16:37.234Z,16.57
2018-11-23T03:17:08.383Z,17.85
2018-11-23T03:17:39.478Z,16.82
2018-11-23T03:18:10.583Z,17.87
2018-11-23T03:18:41.703Z,17.35
2018-11-23T03:19:12.833Z,17.55
2018-11-23T03:19:43.952Z,18.05
2018-11-23T03:20:15.059Z,18.37
2018-11-23T03:20:46.165Z,18.00
2018-11-23T03:21:17.264Z,17.73
2018-11-23T03:21:48.370Z,17.67
2018-11-23T03:22:19.480Z,19.42
2018-11-23T03:22:50.650Z,17.75
2018-11-23T03:23:21.754Z,18.27
2018-11-23T03:23:52.858Z,19.90
2018-11-23T03:24:23.988Z,18.25
2018-11-23T03:24:55.120Z,19.73
2018-11-23T03:25:26.247Z,19.17
2018-11-23T03:25:57.366Z,18.23
2018-11-23T03:26:28.470Z,19.55
2018-11-23T03:26:59.572Z,20.37
2018-11-23T03:27:30.676Z,19.45
2018-11-23T03:28:01.903Z,19.82
2018-11-23T03:28:33.051Z,20.25
2018-11-23T03:29:04.148Z,19.87
2018-11-23T03:29:35.253Z,19.30
2018-11-23T03:30:06.400Z,21.42
2018-11-23T03:30:37.571Z,20.17
2018-11-23T03:31:12.539Z,20.25
2018-11-23T03:31:39.900Z,20.97
2018-11-23T03:32:11.095Z,20.65
2018-11-23T03:32:42.200Z,20.10
2018-11-23T03:33:13.342Z,21.25
2018-11-23T03:33:44.538Z,21.05
2018-11-23T03:34:15.639Z,21.10
2018-11-23T03:34:46.730Z,20.80
2018-11-23T03:35:17.881Z,20.60
2018-11-23T03:35:48.997Z,20.85
2018-11-23T03:36:20.108Z,21.68
2018-11-23T03:36:51.198Z,21.82
2018-11-23T03:37:22.319Z,21.40
2018-11-23T03:37:53.535Z,21.12
2018-11-23T03:38:24.679Z,22.90
2018-11-23T03:38:55.783Z,22.40
2018-11-23T03:39:27.985Z,20.45
2018-11-23T03:39:58.101Z,20.70
2018-11-23T03:40:29.208Z,22.52
2018-11-23T03:41:00.326Z,21.62
2018-11-23T03:41:31.425Z,22.93
2018-11-23T03:42:02.523Z,22.13
2018-11-23T03:42:33.626Z,21.50
2018-11-23T03:43:04.760Z,19.75
2018-11-23T03:43:35.904Z,21.77
2018-11-23T03:44:07.012Z,21.60
2018-11-23T03:44:38.124Z,22.87
2018-11-23T03:45:09.263Z,21.62
2018-11-23T03:45:40.370Z,22.48
2018-11-23T03:46:11.481Z,22.67
2018-11-23T03:46:42.583Z,21.70
2018-11-23T03:47:13.703Z,21.80
2018-11-23T03:47:44.816Z,21.60
2018-11-23T03:48:15.919Z,21.68
2018-11-23T03:48:47.083Z,22.52
2018-11-23T03:49:18.179Z,23.40
2018-11-23T03:49:49.299Z,22.15
2018-11-23T03:50:20.387Z,24.32
2018-11-23T03:50:51.483Z,25.50
2018-11-23T03:51:22.580Z,25.80
2018-11-23T03:51:53.688Z,25.25
2018-11-23T03:52:24.855Z,24.55
2018-11-23T03:52:55.952Z,23.67
2018-11-23T03:53:27.052Z,22.85
2018-11-23T03:53:58.195Z,22.98
2018-11-23T03:54:29.291Z,25.27
2018-11-23T03:55:00.394Z,26.62
2018-11-23T03:55:31.532Z,26.80
2018-11-23T03:56:02.643Z,26.12
2018-11-23T03:56:33.751Z,25.65
2018-11-23T03:57:04.863Z,27.58
2018-11-23T03:57:35.989Z,28.45
2018-11-23T03:58:07.099Z,28.65
2018-11-23T03:58:38.231Z,28.23
2018-11-23T03:59:09.380Z,27.48
2018-11-23T03:59:40.475Z,25.17
2018-11-23T04:00:17.177Z,25.43
2018-11-23T04:00:42.747Z,25.43
2018-11-23T04:01:13.850Z,26.33
2018-11-23T04:01:44.951Z,25.50
2018-11-23T04:02:16.052Z,26.12
2018-11-23T04:02:47.142Z,26.05
2018-11-23T04:03:18.248Z,26.30
2018-11-23T04:03:49.350Z,27.82
2018-11-23T04:04:20.497Z,27.62
2018-11-23T04:04:51.598Z,29.48
2018-11-23T04:05:22.736Z,28.95
2018-11-23T04:05:53.847Z,28.80
2018-11-23T04:06:24.961Z,30.62
2018-11-23T04:06:56.114Z,28.55
2018-11-23T04:07:27.219Z,29.80
2018-11-23T04:07:58.377Z,30.88
2018-11-23T04:08:29.488Z,31.07
2018-11-23T04:09:00.623Z,30.57
2018-11-23T04:09:31.727Z,30.35
2018-11-23T04:10:02.838Z,31.73
2018-11-23T04:10:33.933Z,31.55
2018-11-23T04:11:05.054Z,31.42
2018-11-23T04:11:36.163Z,31.20
2018-11-23T04:12:07.256Z,30.95
2018-11-23T04:12:38.383Z,32.20
2018-11-23T04:13:09.523Z,31.37
2018-11-23T04:13:40.631Z,31.30
2018-11-23T04:14:11.730Z,32.25
2018-11-23T04:14:42.871Z,30.55
2018-11-23T04:15:13.970Z,31.30
2018-11-23T04:15:45.081Z,30.90
2018-11-23T04:16:16.179Z,31.80
2018-11-23T04:16:47.280Z,32.98
2018-11-23T04:17:18.399Z,31.42
2018-11-23T04:17:49.507Z,30.88
2018-11-23T04:18:20.648Z,33.28
2018-11-23T04:18:51.766Z,31.70
2018-11-23T04:19:22.902Z,31.65
2018-11-23T04:19:54.010Z,33.13
2018-11-23T04:20:25.154Z,32.30
2018-11-23T04:20:56.259Z,30.23
2018-11-23T04:21:27.401Z,30.75
2018-11-23T04:21:58.508Z,31.20
2018-11-23T04:22:29.621Z,31.35
2018-11-23T04:23:00.727Z,31.75
2018-11-23T04:23:31.894Z,30.72
2018-11-23T04:24:03.015Z,33.58
2018-11-23T04:24:34.114Z,32.73
2018-11-23T04:25:05.208Z,32.20
2018-11-23T04:25:36.311Z,32.60
2018-11-23T04:26:07.507Z,32.78
2018-11-23T04:26:38.644Z,32.17
2018-11-23T04:27:09.754Z,32.28
2018-11-23T04:27:40.848Z,31.05
2018-11-23T04:28:11.995Z,33.15
2018-11-23T04:28:43.092Z,32.42
2018-11-23T04:29:14.268Z,31.50
2018-11-23T04:29:45.372Z,31.97
2018-11-23T04:30:16.471Z,34.20
2018-11-23T04:30:47.585Z,33.00
2018-11-23T04:31:18.693Z,32.17
2018-11-23T04:31:51.884Z,33.45
2018-11-23T04:32:22.997Z,31.60
2018-11-23T04:32:54.102Z,33.10
2018-11-23T04:33:25.358Z,32.35
2018-11-23T04:33:56.492Z,32.53
2018-11-23T04:34:27.602Z,33.15
2018-11-23T04:34:58.708Z,33.55
2018-11-23T04:35:29.810Z,33.28
2018-11-23T04:36:00.909Z,33.08
2018-11-23T04:36:32.013Z,31.70
2018-11-23T04:37:03.116Z,32.20
2018-11-23T04:37:34.213Z,32.13
2018-11-23T04:38:05.319Z,31.75
2018-11-23T04:38:36.467Z,32.83
2018-11-23T04:39:07.728Z,33.00
2018-11-23T04:39:38.835Z,33.83
2018-11-23T04:40:10.000Z,32.38
2018-11-23T04:40:41.103Z,32.08
2018-11-23T04:41:12.199Z,32.90
2018-11-23T04:41:46.510Z,34.92
2018-11-23T04:42:14.493Z,33.95
2018-11-23T04:42:45.638Z,33.55
2018-11-23T04:43:16.739Z,33.18
2018-11-23T04:43:47.848Z,32.50
2018-11-23T04:44:18.952Z,32.73
2018-11-23T04:44:50.967Z,33.63
2018-11-23T04:45:22.081Z,33.30
2018-11-23T04:45:53.203Z,32.83
2018-11-23T04:46:24.311Z,32.98
2018-11-23T04:46:55.444Z,33.20
2018-11-23T04:47:26.547Z,33.92
2018-11-23T04:47:57.651Z,34.00
2018-11-23T04:48:28.762Z,33.30
2018-11-23T04:49:00.644Z,33.40
2018-11-23T04:49:31.747Z,34.23
2018-11-23T04:50:02.851Z,33.38
2018-11-23T04:50:33.993Z,32.70
2018-11-23T04:51:05.108Z,32.88
2018-11-23T04:51:36.206Z,31.77
2018-11-23T04:52:07.303Z,32.73
2018-11-23T04:52:38.435Z,31.02
2018-11-23T04:53:11.275Z,31.05
2018-11-23T04:53:42.380Z,30.75
2018-11-23T04:54:13.516Z,32.83
2018-11-23T04:54:44.836Z,31.93
2018-11-23T04:55:15.937Z,32.55
2018-11-23T04:55:47.070Z,32.55
2018-11-23T04:56:18.163Z,32.55
2018-11-23T04:56:49.271Z,30.40
2018-11-23T04:57:20.384Z,32.48
2018-11-23T04:57:53.753Z,32.95
2018-11-23T04:58:22.671Z,31.82
2018-11-23T04:58:53.767Z,32.23
2018-11-23T04:59:24.885Z,32.98
2018-11-23T04:59:55.987Z,32.98
2018-11-23T05:00:27.083Z,35.13
2018-11-23T05:00:58.195Z,32.78
2018-11-23T05:01:29.351Z,32.30
2018-11-23T05:02:00.453Z,33.53
2018-11-23T05:02:31.551Z,33.88
2018-11-23T05:03:02.699Z,34.92
2018-11-23T05:03:33.837Z,36.17
2018-11-23T05:04:04.937Z,35.17
2018-11-23T05:04:36.041Z,32.78
2018-11-23T05:05:07.140Z,32.73
2018-11-23T05:05:38.239Z,32.70
2018-11-23T05:06:09.343Z,32.40
2018-11-23T05:06:40.447Z,32.10
2018-11-23T05:07:11.544Z,32.33
2018-11-23T05:07:42.644Z,34.13
2018-11-23T05:08:13.783Z,33.60
2018-11-23T05:08:44.895Z,32.48
2018-11-23T05:09:15.999Z,31.65
2018-11-23T05:09:47.104Z,29.48
2018-11-23T05:10:18.203Z,31.68
2018-11-23T05:10:49.299Z,32.05
2018-11-23T05:11:20.466Z,31.30
2018-11-23T05:11:51.564Z,28.90
2018-11-23T05:12:22.679Z,30.60
2018-11-23T05:12:53.782Z,29.23
2018-11-23T05:13:24.891Z,30.57
2018-11-23T05:13:55.995Z,29.42
2018-11-23T05:14:27.104Z,29.42
2018-11-23T05:14:58.215Z,30.08
2018-11-23T05:15:29.324Z,30.27
2018-11-23T05:16:01.136Z,29.80
2018-11-23T05:16:32.289Z,28.85
2018-11-23T05:17:03.398Z,30.05
2018-11-23T05:17:35.289Z,29.85
2018-11-23T05:18:06.392Z,31.20
2018-11-23T05:18:37.496Z,30.62
2018-11-23T05:19:08.635Z,31.33
2018-11-23T05:19:39.740Z,31.95
2018-11-23T05:20:10.853Z,31.62
2018-11-23T05:20:41.982Z,32.53
2018-11-23T05:21:13.086Z,31.05
2018-11-23T05:21:44.330Z,31.00
2018-11-23T05:22:15.427Z,30.45
2018-11-23T05:22:46.528Z,31.75
2018-11-23T05:23:17.635Z,30.48
2018-11-23T05:23:48.739Z,30.95
2018-11-23T05:24:20.694Z,30.48
2018-11-23T05:24:51.801Z,31.07
2018-11-23T05:25:22.907Z,31.97
2018-11-23T05:25:55.278Z,31.30
2018-11-23T05:26:26.978Z,32.25
2018-11-23T05:26:58.132Z,32.40
2018-11-23T05:27:29.319Z,31.87
2018-11-23T05:28:00.456Z,31.60
2018-11-23T05:28:31.586Z,32.45
2018-11-23T05:29:03.264Z,32.38
2018-11-23T05:29:34.374Z,31.85
2018-11-23T05:30:05.471Z,31.97
2018-11-23T05:30:36.854Z,34.20
2018-11-23T05:31:08.691Z,33.58
2018-11-23T05:31:39.801Z,31.62
2018-11-23T05:32:10.945Z,33.15
2018-11-23T05:32:42.056Z,34.10
2018-11-23T05:33:13.175Z,33.73
2018-11-23T05:33:44.287Z,33.98
2018-11-23T05:34:15.387Z,33.92
2018-11-23T05:34:46.496Z,33.80
2018-11-23T05:35:17.611Z,31.70
2018-11-23T05:35:48.717Z,31.87
2018-11-23T05:36:19.839Z,31.35
2018-11-23T05:36:50.940Z,32.98
2018-11-23T05:37:22.092Z,31.60
2018-11-23T05:37:53.936Z,33.08
2018-11-23T05:38:25.042Z,31.68
2018-11-23T05:38:56.195Z,33.70
2018-11-23T05:39:27.367Z,33.58
2018-11-23T05:39:58.472Z,32.85
2018-11-23T05:40:29.628Z,35.90
2018-11-23T05:41:00.738Z,35.03
2018-11-23T05:41:31.851Z,34.95
2018-11-23T05:42:03.007Z,36.15
2018-11-23T05:42:34.124Z,36.13
2018-11-23T05:43:05.214Z,36.28
2018-11-23T05:43:36.320Z,35.00
2018-11-23T05:44:07.444Z,36.35
2018-11-23T05:44:38.570Z,35.70
2018-11-23T05:45:09.671Z,37.98
2018-11-23T05:45:40.785Z,36.55
2018-11-23T05:46:11.938Z,39.08
2018-11-23T05:46:43.030Z,37.55
2018-11-23T05:47:14.135Z,37.30
2018-11-23T05:47:45.236Z,35.95
2018-11-23T05:48:16.404Z,36.48
2018-11-23T05:48:47.569Z,35.30
2018-11-23T05:49:18.786Z,36.90
2018-11-23T05:49:49.893Z,35.70
2018-11-23T05:50:20.997Z,35.13
2018-11-23T05:50:52.094Z,34.95
2018-11-23T05:51:23.247Z,35.33
2018-11-23T05:51:54.352Z,35.88
2018-11-23T05:52:25.459Z,35.70
2018-11-23T05:52:56.551Z,35.73
2018-11-23T05:53:27.696Z,36.13
2018-11-23T05:53:58.795Z,35.08
2018-11-23T05:54:29.956Z,35.40
2018-11-23T05:55:01.107Z,34.88
2018-11-23T05:55:32.202Z,34.75
2018-11-23T05:56:03.345Z,34.65
2018-11-23T05:56:34.480Z,35.40
2018-11-23T05:57:05.656Z,36.73
2018-11-23T05:57:36.768Z,35.70
2018-11-23T05:58:07.880Z,34.83
2018-11-23T05:58:38.975Z,37.70
2018-11-23T05:59:10.071Z,35.52
2018-11-23T05:59:41.168Z,36.50
2018-11-23T06:00:12.287Z,35.63
2018-11-23T06:00:43.423Z,35.80
2018-11-23T06:01:14.531Z,37.38
2018-11-23T06:01:45.639Z,35.10
2018-11-23T06:02:16.746Z,36.73
2018-11-23T06:02:47.856Z,36.05
2018-11-23T06:03:18.961Z,37.05
2018-11-23T06:03:50.104Z,35.68
2018-11-23T06:04:21.241Z,36.42
2018-11-23T06:04:52.339Z,38.42
2018-11-23T06:05:23.447Z,36.88
2018-11-23T06:05:54.548Z,36.48
2018-11-23T06:06:26.000Z,37.58
2018-11-23T06:06:56.807Z,38.48
2018-11-23T06:07:27.939Z,37.53
2018-11-23T06:07:59.051Z,38.00
2018-11-23T06:08:30.225Z,39.42
2018-11-23T06:09:01.380Z,39.23
2018-11-23T06:09:32.536Z,37.93
2018-11-23T06:10:03.651Z,38.88
2018-11-23T06:10:34.765Z,39.95
2018-11-23T06:11:05.870Z,39.65
2018-11-23T06:11:36.978Z,38.92
2018-11-23T06:12:08.121Z,39.67
2018-11-23T06:12:39.227Z,40.25
2018-11-23T06:13:10.330Z,41.42
2018-11-23T06:13:41.523Z,42.00
2018-11-23T06:14:12.630Z,40.03
2018-11-23T06:14:43.733Z,42.62
2018-11-23T06:15:14.836Z,40.67
2018-11-23T06:15:45.944Z,40.90
2018-11-23T06:16:17.044Z,39.45
2018-11-23T06:16:48.165Z,41.08
2018-11-23T06:17:19.279Z,40.63
2018-11-23T06:17:50.383Z,39.08
2018-11-23T06:18:21.486Z,39.25
2018-11-23T06:18:52.631Z,38.90
2018-11-23T06:19:23.731Z,39.65
2018-11-23T06:19:54.828Z,40.73
2018-11-23T06:20:25.933Z,39.18
2018-11-23T06:20:57.071Z,39.85
2018-11-23T06:21:28.179Z,39.35
2018-11-23T06:21:59.304Z,39.25
2018-11-23T06:22:32.628Z,41.30
2018-11-23T06:23:03.756Z,40.50
2018-11-23T06:23:34.856Z,39.23
2018-11-23T06:24:05.990Z,39.95
2018-11-23T06:24:37.120Z,39.98
2018-11-23T06:25:08.232Z,42.00
2018-11-23T06:25:39.331Z,40.30
2018-11-23T06:26:10.476Z,40.63
2018-11-23T06:26:41.572Z,40.03
2018-11-23T06:27:12.671Z,39.18
2018-11-23T06:27:43.787Z,39.20
2018-11-23T06:28:14.880Z,38.40
2018-11-23T06:28:45.981Z,39.25
2018-11-23T06:29:17.129Z,38.17
2018-11-23T06:29:48.251Z,39.15
2018-11-23T06:30:19.351Z,39.10
2018-11-23T06:30:50.463Z,38.10
2018-11-23T06:31:21.591Z,39.83
2018-11-23T06:31:52.688Z,39.35
2018-11-23T06:32:23.792Z,40.98
2018-11-23T06:32:54.920Z,40.03
2018-11-23T06:33:26.026Z,40.23
2018-11-23T06:33:57.135Z,39.60
2018-11-23T06:34:28.239Z,43.75
2018-11-23T06:34:59.341Z,42.45
2018-11-23T06:35:30.441Z,40.48
2018-11-23T06:36:01.596Z,41.15
2018-11-23T06:36:32.708Z,41.05
2018-11-23T06:37:03.815Z,41.10
2018-11-23T06:37:34.919Z,41.23
2018-11-23T06:38:06.015Z,44.30
2018-11-23T06:38:37.121Z,42.93
2018-11-23T06:39:08.225Z,42.27
2018-11-23T06:39:40.048Z,42.58
2018-11-23T06:40:12.492Z,41.95
2018-11-23T06:40:43.863Z,42.33
2018-11-23T06:41:19.001Z,36.73